Time;durP1;ratioP1;P1;durP2;ratioP2;P2;SDS_P1;SDS_P2;PMS_P1;PMS_P2;Temp;Humidity;BMP_temperature;BMP_pressure;BME280_temperature;BME280_humidity;BME280_pressure;Samples;Min_cycle;Max_cycle;Signal;HPM_P1;HPM_P2
2023/03/15 00:00:51;;;;;;;1999.90;999.90;;;5.80;99.90;;;;;;5041550;28;20441;-84
2023/03/15 00:03:16;;;;;;;;;;;6.70;99.90;;;;;;5078600;28;20089;-83
2023/03/15 00:05:47;;;;;;;1999.90;999.90;;;7.10;1.00;;;;;;5073634;28;19967;-83
2023/03/15 00:08:13;;;;;;;1999.90;999.90;;;5.10;99.90;;;;;;5067488;28;20047;-84
2023/03/15 00:10:47;;;;;;;1999.90;999.90;;;5.70;99.90;;;;;;5078529;28;20047;-83
2023/03/15 00:13:14;;;;;;;1999.90;999.90;;;4.90;72.80;;;;;;5097705;28;20040;-83
2023/03/15 00:15:48;;;;;;;1999.90;999.90;;;5.50;37.80;;;;;;5093563;28;20560;-83
2023/03/15 00:18:16;;;;;;;1999.90;999.90;;;8.00;99.90;;;;;;5081905;28;20075;-84
2023/03/15 00:20:42;;;;;;;1999.90;999.90;;;7.10;99.90;;;;;;5091659;28;20044;-84
2023/03/15 00:23:08;;;;;;;1999.90;999.90;;;5.50;99.90;;;;;;5093650;28;20054;-83
2023/03/15 00:25:34;;;;;;;1999.90;999.90;;;7.10;99.90;;;;;;5074264;28;20066;-83
2023/03/15 00:28:00;;;;;;;1999.90;999.90;;;5.70;99.90;;;;;;5073107;28;20576;-83
2023/03/15 00:30:27;;;;;;;1999.90;999.90;;;5.50;1.00;;;;;;5062096;28;20139;-83
2023/03/15 00:32:53;;;;;;;1999.90;999.90;;;5.80;99.90;;;;;;5093971;28;20143;-84
2023/03/15 00:35:19;;;;;;;1999.90;999.90;;;5.80;99.90;;;;;;5048634;28;20126;-84
2023/03/15 00:37:45;;;;;;;1999.90;999.90;;;8.10;99.90;;;;;;5081660;28;20048;-85
2023/03/15 00:40:13;;;;;;;1999.90;999.90;;;5.80;99.90;;;;;;5078513;28;20044;-85
2023/03/15 00:42:39;;;;;;;;;;;7.00;99.90;;;;;;5084505;28;20045;-83
2023/03/15 00:45:05;;;;;;;1999.90;999.90;;;7.00;99.90;;;;;;5079616;28;19923;-84
2023/03/15 00:47:31;;;;;;;1999.90;999.90;;;7.00;1.00;;;;;;5074616;28;20105;-84
2023/03/15 00:49:57;;;;;;;1999.90;999.90;;;;;;;;;;5062668;28;20048;-83
2023/03/15 00:52:24;;;;;;;1999.90;999.90;;;5.40;73.10;;;;;;5089101;28;20462;-84
2023/03/15 00:54:54;;;;;;;1999.90;999.90;;;6.00;46.10;;;;;;5089839;28;20052;-84
2023/03/15 00:57:20;;;;;;;1999.90;999.90;;;;;;;;;;5054561;28;20132;-83
2023/03/15 00:59:45;;;;;;;1999.90;999.90;;;5.30;99.90;;;;;;5055059;28;20049;-85
2023/03/15 01:02:12;;;;;;;1999.90;999.90;;;6.60;99.90;;;;;;5086589;28;20373;-83
2023/03/15 01:04:37;;;;;;;1999.90;999.90;;;6.70;99.90;;;;;;5041224;28;20039;-83
2023/03/15 01:07:04;;;;;;;1999.90;999.90;;;5.20;1.00;;;;;;5099985;28;20050;-83
2023/03/15 01:09:30;;;;;;;1999.90;999.90;;;6.00;1.00;;;;;;5089849;28;20113;-84
2023/03/15 01:11:57;;;;;;;1999.90;999.90;;;5.30;1.00;;;;;;5090964;28;20036;-83
2023/03/15 01:14:22;;;;;;;1999.90;999.90;;;4.80;96.80;;;;;;5074222;28;20056;-86
2023/03/15 01:16:48;;;;;;;1999.90;999.90;;;6.30;75.30;;;;;;5059637;28;20413;-84
2023/03/15 01:19:14;;;;;;;1999.90;999.90;;;7.20;99.90;;;;;;5072538;28;20335;-84
2023/03/15 01:21:40;;;;;;;1999.90;999.90;;;4.20;99.90;;;;;;5064472;28;20134;-84
2023/03/15 01:24:10;;;;;;;1999.90;999.90;;;5.70;99.90;;;;;;5102617;28;20058;-84
2023/03/15 01:26:36;;;;;;;1999.90;999.90;;;5.90;99.90;;;;;;5088854;28;20092;-83
2023/03/15 01:29:02;;;;;;;1999.90;999.90;;;4.50;99.90;;;;;;5082943;28;20051;-83
2023/03/15 01:31:29;;;;;;;1999.90;999.90;;;3.70;99.90;;;;;;5096538;28;20052;-85
2023/03/15 01:33:56;;;;;;;1999.90;999.90;;;6.10;99.90;;;;;;5069237;28;20396;-83
2023/03/15 01:36:23;;;;;;;1999.90;999.90;;;;;;;;;;5076973;28;20062;-83
2023/03/15 01:38:48;;;;;;;1999.90;999.90;;;4.70;99.90;;;;;;5053819;28;20059;-83
2023/03/15 01:41:15;;;;;;;1999.90;999.90;;;5.00;99.90;;;;;;5082415;28;20051;-85
2023/03/15 01:43:47;;;;;;;1999.90;999.90;;;7.70;99.90;;;;;;5091652;28;20044;-83
2023/03/15 01:46:22;;;;;;;1999.90;999.90;;;6.30;99.90;;;;;;5077965;28;20044;-84
2023/03/15 01:48:55;;;;;;;1999.90;999.90;;;6.20;99.90;;;;;;5087468;28;20043;-84
2023/03/15 01:51:30;;;;;;;1999.90;999.90;;;3.80;1.00;;;;;;5098741;28;20032;-83
2023/03/15 01:54:01;;;;;;;1999.90;999.90;;;4.20;1.00;;;;;;5085526;28;20058;-83
2023/03/15 01:56:29;;;;;;;1999.90;999.90;;;4.50;1.00;;;;;;5103631;28;20616;-83
2023/03/15 01:58:58;;;;;;;1999.90;999.90;;;4.00;1.00;;;;;;5111335;28;20070;-83
2023/03/15 02:01:24;;;;;;;1999.90;999.90;;;;;;;;;;5102220;28;20047;-86
2023/03/15 02:03:58;;;;;;;1999.90;999.90;;;4.40;1.00;;;;;;5092983;28;20055;-83
2023/03/15 02:06:25;;;;;;;1999.90;999.90;;;;;;;;;;5064544;28;20060;-86
2023/03/15 02:09:00;;;;;;;1999.90;999.90;;;3.90;1.00;;;;;;5107611;28;20438;-83
2023/03/15 02:11:27;;;;;;;1999.90;999.90;;;4.40;99.90;;;;;;5086177;28;20115;-83
2023/03/15 02:13:55;;;;;;;1999.90;999.90;;;4.40;58.70;;;;;;5097583;28;20178;-84
2023/03/15 02:16:22;;;;;;;1999.90;999.90;;;4.40;98.10;;;;;;5075483;28;20083;-83
2023/03/15 02:18:48;;;;;;;1999.90;999.90;;;5.00;99.90;;;;;;5066457;28;20077;-83
2023/03/15 02:21:41;;;;;;;1999.90;999.90;;;4.10;83.60;;;;;;5070444;28;20119;-84
2023/03/15 02:24:28;;;;;;;1999.90;999.90;;;3.10;95.40;;;;;;5097177;28;20058;-83
2023/03/15 02:26:56;;;;;;;1999.90;999.90;;;4.20;99.90;;;;;;5094214;28;20048;-84
2023/03/15 02:29:25;;;;;;;1999.90;999.90;;;6.60;90.20;;;;;;5095328;28;20519;-83
2023/03/15 02:31:51;;;;;;;1999.90;999.90;;;1.80;99.90;;;;;;5084008;28;20181;-83
2023/03/15 02:34:17;;;;;;;1999.90;999.90;;;6.10;99.90;;;;;;5081287;28;20053;-83
2023/03/15 02:36:43;;;;;;;1999.90;999.90;;;;;;;;;;5090567;28;20408;-83
2023/03/15 02:39:15;;;;;;;1999.90;999.90;;;4.20;99.90;;;;;;5103521;28;20048;-83
2023/03/15 02:41:45;;;;;;;1999.90;999.90;;;3.50;99.90;;;;;;5079006;28;20047;-83
2023/03/15 02:44:17;;;;;;;1999.90;999.90;;;4.80;99.90;;;;;;5085325;28;20072;-83
2023/03/15 02:46:46;;;;;;;1999.90;999.90;;;4.20;95.00;;;;;;5078822;28;20055;-84
2023/03/15 02:49:15;;;;;;;1999.90;999.90;;;5.50;64.60;;;;;;5097499;28;20050;-84
2023/03/15 02:51:41;;;;;;;1999.90;999.90;;;6.70;99.90;;;;;;5067777;28;20054;-84
2023/03/15 02:54:07;;;;;;;1999.90;999.90;;;6.30;99.90;;;;;;5064180;28;20041;-84
2023/03/15 02:56:33;;;;;;;1999.90;999.90;;;5.00;99.90;;;;;;5083717;28;20040;-84
2023/03/15 02:58:59;;;;;;;1999.90;999.90;;;4.30;99.90;;;;;;5077791;28;20040;-83
2023/03/15 03:01:25;;;;;;;1999.90;999.90;;;6.50;99.90;;;;;;5084820;28;20121;-84
2023/03/15 03:03:50;;;;;;;1999.90;999.90;;;5.40;98.70;;;;;;5081931;28;20055;-84
2023/03/15 03:06:16;;;;;;;1999.90;999.90;;;6.30;44.80;;;;;;5063917;28;20097;-83
2023/03/15 03:08:45;;;;;;;1999.90;999.90;;;3.70;99.90;;;;;;5066108;28;20412;-84
2023/03/15 03:11:13;;;;;;;1999.90;999.90;;;3.90;99.90;;;;;;5064520;28;20052;-85
2023/03/15 03:13:39;;;;;;;1999.90;999.90;;;4.00;99.90;;;;;;5083829;28;20127;-85
2023/03/15 03:16:05;;;;;;;1999.90;999.90;;;3.80;99.90;;;;;;5068098;28;20048;-84
2023/03/15 03:18:34;;;;;;;1999.90;999.90;;;;;;;;;;5077678;28;20074;-83
2023/03/15 03:21:02;;;;;;;1999.90;999.90;;;3.60;99.90;;;;;;5083858;28;20049;-85
2023/03/15 03:23:28;;;;;;;;;;;4.00;99.90;;;;;;5067346;28;20044;-84
2023/03/15 03:25:56;;;;;;;1999.90;999.90;;;3.40;99.90;;;;;;5078107;28;19924;-84
2023/03/15 03:28:23;;;;;;;1999.90;999.90;;;4.80;99.90;;;;;;5050519;28;20056;-85
2023/03/15 03:30:50;;;;;;;1999.90;999.90;;;2.50;99.90;;;;;;5066690;28;20110;-86
2023/03/15 03:33:16;;;;;;;1999.90;999.90;;;6.30;99.90;;;;;;5079483;28;20045;-84
2023/03/15 03:35:42;;;;;;;1999.90;999.90;;;1.90;99.90;;;;;;5082367;28;20544;-85
2023/03/15 03:38:10;;;;;;;1999.90;999.90;;;3.70;99.90;;;;;;5085652;28;20465;-84
2023/03/15 03:40:36;;;;;;;1999.90;999.90;;;4.20;99.90;;;;;;5081354;28;20121;-84
2023/03/15 03:43:02;;;;;;;1999.90;999.90;;;6.50;99.90;;;;;;5075874;28;20059;-83
2023/03/15 03:45:27;;;;;;;1999.90;999.90;;;5.30;99.90;;;;;;5080443;28;20040;-84
2023/03/15 03:47:53;;;;;;;1999.90;999.90;;;2.20;99.90;;;;;;5062407;28;20124;-84
2023/03/15 03:50:19;;;;;;;1999.90;999.90;;;5.60;99.90;;;;;;5066597;28;21241;-83
2023/03/15 03:52:45;;;;;;;1999.90;999.90;;;2.70;99.90;;;;;;5057450;28;20122;-85
2023/03/15 03:55:15;;;;;;;1999.90;999.90;;;;;;;;;;5063712;28;20540;-84
2023/03/15 03:57:41;;;;;;;1999.90;999.90;;;2.70;99.90;;;;;;5063924;28;20040;-84
2023/03/15 04:00:15;;;;;;;1999.90;999.90;;;4.40;1.00;;;;;;5064866;28;20056;-84
2023/03/15 04:02:41;;;;;;;1999.90;999.90;;;2.30;1.00;;;;;;5082104;28;20040;-84
2023/03/15 04:05:11;;;;;;;1999.90;999.90;;;4.00;1.00;;;;;;5060828;28;20139;-84
2023/03/15 04:07:38;;;;;;;1999.90;999.90;;;3.70;1.00;;;;;;5079825;28;20070;-84
2023/03/15 04:10:04;;;;;;;1999.90;999.90;;;4.00;1.00;;;;;;5044749;28;20048;-84
2023/03/15 04:12:30;;;;;;;1999.90;999.90;;;1.70;1.00;;;;;;5078718;28;20067;-84
2023/03/15 04:14:56;;;;;;;1999.90;999.90;;;;;;;;;;5078340;28;20133;-82
2023/03/15 04:17:22;;;;;;;1999.90;999.90;;;4.50;1.00;;;;;;5089727;28;20056;-83
2023/03/15 04:19:48;;;;;;;1999.90;999.90;;;4.80;1.00;;;;;;5079500;28;20043;-84
2023/03/15 04:22:14;;;;;;;1999.90;999.90;;;6.10;1.00;;;;;;5101300;28;20060;-83
2023/03/15 04:24:43;;;;;;;1999.90;999.90;;;3.70;42.70;;;;;;5083303;28;20135;-84
2023/03/15 04:27:13;;;;;;;1999.90;999.90;;;4.40;93.50;;;;;;5092922;28;20075;-83
2023/03/15 04:29:41;;;;;;;1999.90;999.90;;;3.40;1.00;;;;;;5068061;28;20047;-83
2023/03/15 04:32:07;;;;;;;1999.90;999.90;;;3.70;94.80;;;;;;5051724;28;20061;-84
2023/03/15 04:34:37;;;;;;;1999.90;999.90;;;3.60;99.90;;;;;;5056674;28;20048;-84
2023/03/15 04:37:04;;;;;;;1999.90;999.90;;;;;;;;;;5064154;28;20411;-85
2023/03/15 04:39:30;;;;;;;1999.90;999.90;;;3.70;99.90;;;;;;5059004;28;20381;-84
2023/03/15 04:41:56;;;;;;;1999.90;999.90;;;3.00;93.00;;;;;;5072714;28;20531;-84
2023/03/15 04:44:25;;;;;;;1999.90;999.90;;;3.40;99.90;;;;;;5073415;28;20085;-84
2023/03/15 04:46:53;;;;;;;1999.90;999.90;;;2.20;99.90;;;;;;5088925;28;20161;-85
2023/03/15 04:49:18;;;;;;;1999.90;999.90;;;3.60;99.90;;;;;;5100727;28;20089;-84
2023/03/15 04:51:44;;;;;;;1999.90;999.90;;;;;;;;;;5074894;28;20040;-84
2023/03/15 04:54:10;;;;;;;1999.90;999.90;;;;;;;;;;5092456;28;20050;-84
2023/03/15 04:56:36;;;;;;;1999.90;999.90;;;3.30;99.90;;;;;;5057314;28;20040;-84
2023/03/15 04:59:02;;;;;;;1999.90;999.90;;;6.20;99.90;;;;;;5071976;28;20239;-84
2023/03/15 05:01:30;;;;;;;1999.90;999.90;;;3.60;99.90;;;;;;5055372;28;20045;-83
2023/03/15 05:03:57;;;;;;;1999.90;999.90;;;4.40;99.90;;;;;;5059748;28;20048;-85
2023/03/15 05:06:23;;;;;;;1999.90;999.90;;;3.10;99.90;;;;;;5090332;28;20051;-85
2023/03/15 05:08:48;;;;;;;1999.90;999.90;;;4.80;99.90;;;;;;5065163;28;20496;-85
2023/03/15 05:11:14;;;;;;;1999.90;999.90;;;3.60;99.90;;;;;;5082551;28;20052;-83
2023/03/15 05:13:40;;;;;;;1999.90;999.90;;;2.90;99.90;;;;;;5084420;28;20044;-84
2023/03/15 05:16:05;;;;;;;1999.90;999.90;;;3.50;99.90;;;;;;5076450;28;20040;-84
2023/03/15 05:18:31;;;;;;;1999.90;999.90;;;4.80;99.90;;;;;;5054716;28;20082;-84
2023/03/15 05:20:57;;;;;;;1999.90;999.90;;;3.60;99.90;;;;;;5073362;28;20044;-84
2023/03/15 05:23:23;;;;;;;1999.90;999.90;;;5.00;99.90;;;;;;5093405;28;20047;-83
2023/03/15 05:25:54;;;;;;;1999.90;999.90;;;4.10;1.00;;;;;;5085597;28;20048;-81
2023/03/15 05:28:21;;;;;;;1999.90;999.90;;;;;;;;;;5077167;28;20051;-82
2023/03/15 05:30:47;;;;;;;1999.90;999.90;;;3.80;1.00;;;;;;5071414;28;20044;-87
2023/03/15 05:33:14;;;;;;;1999.90;999.90;;;4.50;99.90;;;;;;5072937;28;20149;-85
2023/03/15 05:35:41;;;;;;;1999.90;999.90;;;4.50;99.90;;;;;;5073891;28;20452;-83
2023/03/15 05:38:06;;;;;;;1999.90;999.90;;;2.60;99.90;;;;;;5071045;28;20065;-83
2023/03/15 05:40:32;;;;;;;1999.90;999.90;;;6.40;99.90;;;;;;5076751;28;20119;-82
2023/03/15 05:42:58;;;;;;;1999.90;999.90;;;;;;;;;;5096564;28;20070;-83
2023/03/15 05:45:24;;;;;;;1999.90;999.90;;;4.10;1.00;;;;;;5096543;28;20122;-83
2023/03/15 05:47:50;;;;;;;1999.90;999.90;;;3.00;1.00;;;;;;5087029;28;20455;-83
2023/03/15 05:50:16;;;;;;;1999.90;999.90;;;2.80;1.00;;;;;;5090859;28;20049;-83
2023/03/15 05:52:42;;;;;;;1999.90;999.90;;;;;;;;;;5073986;28;20040;-82
2023/03/15 05:55:08;;;;;;;1999.90;999.90;;;5.60;1.00;;;;;;5084463;28;20044;-83
2023/03/15 05:57:34;;;;;;;1999.90;999.90;;;;;;;;;;5064189;28;20629;-82
2023/03/15 05:59:59;;;;;;;1999.90;999.90;;;4.90;20.00;;;;;;5077195;28;20041;-83
2023/03/15 06:02:25;;;;;;;1999.90;999.90;;;2.70;1.00;;;;;;5077115;28;20101;-84
2023/03/15 06:04:51;;;;;;;1999.90;999.90;;;;;;;;;;5072910;28;21180;-88
2023/03/15 06:07:17;;;;;;;1999.90;999.90;;;4.30;1.00;;;;;;5083818;28;20140;-84
2023/03/15 06:09:43;;;;;;;1999.90;999.90;;;4.60;5.60;;;;;;5089825;28;20552;-82
2023/03/15 06:12:09;;;;;;;1999.90;999.90;;;4.10;1.00;;;;;;5091938;28;20043;-82
2023/03/15 06:14:34;;;;;;;1999.90;999.90;;;3.30;99.90;;;;;;5084727;28;20059;-82
2023/03/15 06:17:00;;;;;;;1999.90;999.90;;;4.40;96.00;;;;;;5090322;28;20044;-83
2023/03/15 06:19:26;;;;;;;1999.90;999.90;;;4.80;1.00;;;;;;5096221;28;20496;-82
2023/03/15 06:21:51;;;;;;;1999.90;999.90;;;3.00;1.00;;;;;;5095375;28;20058;-83
2023/03/15 06:24:17;;;;;;;1999.90;999.90;;;3.30;1.00;;;;;;5055702;28;20366;-82
2023/03/15 06:26:43;;;;;;;1999.90;999.90;;;;;;;;;;5053211;28;20056;-87
2023/03/15 06:29:08;;;;;;;1999.90;999.90;;;3.80;1.00;;;;;;5063738;28;20927;-83
2023/03/15 06:31:34;;;;;;;1999.90;999.90;;;6.60;1.00;;;;;;5078996;28;20063;-82
2023/03/15 06:34:00;;;;;;;1999.90;999.90;;;3.90;25.00;;;;;;5082580;28;20069;-83
2023/03/15 06:36:26;;;;;;;1999.90;999.90;;;6.30;58.60;;;;;;5082968;28;20105;-84
2023/03/15 06:38:53;;;;;;;1999.90;999.90;;;4.00;77.00;;;;;;5059432;28;20127;-85
2023/03/15 06:41:20;;;;;;;1999.90;999.90;;;4.00;99.90;;;;;;5077607;28;20530;-83
2023/03/15 06:43:46;;;;;;;1999.90;999.90;;;5.10;1.00;;;;;;5083587;28;20040;-82
2023/03/15 06:46:11;;;;;;;1999.90;999.90;;;3.40;99.90;;;;;;5079646;28;20405;-84
2023/03/15 06:48:37;;;;;;;1999.90;999.90;;;;;;;;;;5077816;28;20041;-87
2023/03/15 06:51:04;;;;;;;1999.90;999.90;;;;;;;;;;5063217;28;20045;-84
2023/03/15 06:53:30;;;;;;;1999.90;999.90;;;4.50;1.00;;;;;;5059341;28;20052;-82
2023/03/15 06:55:56;;;;;;;1999.90;999.90;;;6.10;99.90;;;;;;5081730;28;20040;-82
2023/03/15 06:58:22;;;;;;;1999.90;999.90;;;;;;;;;;5082254;28;20055;-82
2023/03/15 07:00:49;;;;;;;1999.90;999.90;;;5.70;99.90;;;;;;5064648;28;20044;-84
2023/03/15 07:03:15;;;;;;;1999.90;999.90;;;6.40;99.90;;;;;;5078593;28;20119;-83
2023/03/15 07:05:41;;;;;;;1999.90;999.90;;;;;;;;;;5082741;28;20444;-84
2023/03/15 07:08:06;;;;;;;1999.90;999.90;;;5.70;99.90;;;;;;5080423;28;20051;-82
2023/03/15 07:10:32;;;;;;;1999.90;999.90;;;;;;;;;;5079177;28;20939;-84
2023/03/15 07:12:58;;;;;;;1999.90;999.90;;;6.00;99.90;;;;;;5081034;28;20135;-85
2023/03/15 07:15:24;;;;;;;1999.90;999.90;;;5.20;99.90;;;;;;5081208;28;20115;-83
2023/03/15 07:17:50;;;;;;;1999.90;999.90;;;;;;;;;;5083452;28;20477;-83
2023/03/15 07:20:16;;;;;;;1999.90;999.90;;;5.20;99.90;;;;;;5046449;28;20508;-83
2023/03/15 07:22:44;;;;;;;1999.90;999.90;;;4.40;1.00;;;;;;5080845;28;20123;-85
2023/03/15 07:25:10;;;;;;;1999.90;999.90;;;5.50;1.00;;;;;;5047658;28;20495;-83
2023/03/15 07:27:36;;;;;;;1999.90;999.90;;;7.00;1.00;;;;;;5086339;28;20055;-86
2023/03/15 07:30:02;;;;;;;1999.90;999.90;;;;;;;;;;5089958;28;20131;-82
2023/03/15 07:32:29;;;;;;;1999.90;999.90;;;3.80;99.90;;;;;;5085765;28;20377;-83
2023/03/15 07:34:59;;;;;;;1999.90;999.90;;;7.10;1.00;;;;;;5093224;28;20491;-83
2023/03/15 07:37:26;;;;;;;1999.90;999.90;;;5.50;1.00;;;;;;5094233;28;20063;-85
2023/03/15 07:39:52;;;;;;;1999.90;999.90;;;;;;;;;;5071708;28;20052;-83
2023/03/15 07:42:17;;;;;;;1999.90;999.90;;;6.20;99.90;;;;;;5086744;28;20123;-83
2023/03/15 07:44:43;;;;;;;1999.90;999.90;;;5.90;99.90;;;;;;5085336;28;20124;-83
2023/03/15 07:47:09;;;;;;;1999.90;999.90;;;4.80;99.90;;;;;;5073525;28;20049;-83
2023/03/15 07:49:35;;;;;;;1999.90;999.90;;;4.80;99.90;;;;;;5079521;28;20059;-83
2023/03/15 07:52:01;;;;;;;1999.90;999.90;;;5.60;99.90;;;;;;5076538;28;20043;-82
2023/03/15 07:54:28;;;;;;;1999.90;999.90;;;6.10;1.00;;;;;;5084398;28;20219;-83
2023/03/15 07:56:54;;;;;;;1999.90;999.90;;;6.30;1.00;;;;;;5090628;28;20050;-85
2023/03/15 07:59:19;;;;;;;1999.90;999.90;;;5.70;99.90;;;;;;5093701;28;20048;-82
2023/03/15 08:01:45;;;;;;;1999.90;999.90;;;6.10;99.90;;;;;;5036356;28;20044;-82
2023/03/15 08:04:11;;;;;;;1999.90;999.90;;;8.10;12.60;;;;;;5059686;28;20039;-83
2023/03/15 08:06:36;;;;;;;1999.90;999.90;;;10.60;99.90;;;;;;5092235;28;20048;-82
2023/03/15 08:09:04;;;;;;;1999.90;999.90;;;11.50;1.00;;;;;;5055247;28;20488;-83
2023/03/15 08:11:30;;;;;;;1999.90;999.90;;;11.20;80.80;;;;;;5079176;28;20040;-82
2023/03/15 08:13:56;;;;;;;1999.90;999.90;;;;;;;;;;5056040;28;20106;-82
2023/03/15 08:16:22;;;;;;;1999.90;999.90;;;;;;;;;;5080637;28;20047;-82
2023/03/15 08:18:48;;;;;;;1999.90;999.90;;;12.90;1.00;;;;;;5063844;28;20078;-82
2023/03/15 08:21:14;;;;;;;1999.90;833.05;;;13.80;5.10;;;;;;5056144;28;20068;-83
2023/03/15 08:23:40;;;;;;;1999.90;982.47;;;13.50;2.90;;;;;;5059035;28;20049;-87
2023/03/15 08:26:05;;;;;;;1999.90;999.90;;;14.00;1.00;;;;;;5056466;28;20090;-82
2023/03/15 08:28:31;;;;;;;1999.90;999.90;;;14.30;1.00;;;;;;5078708;28;20036;-80
2023/03/15 08:30:57;;;;;;;1999.90;999.90;;;14.60;99.90;;;;;;5077383;28;20561;-82
2023/03/15 08:33:23;;;;;;;1999.90;999.90;;;14.70;99.90;;;;;;5044888;28;20139;-81
2023/03/15 08:35:52;;;;;;;1999.90;999.90;;;15.10;99.90;;;;;;5039558;28;20140;-85
2023/03/15 08:38:18;;;;;;;1999.90;947.83;;;15.50;99.90;;;;;;5040595;28;20053;-81
2023/03/15 08:40:45;;;;;;;1918.53;576.10;;;15.80;99.90;;;;;;5020816;28;20033;-85
2023/03/15 08:43:11;;;;;;;1526.13;397.80;;;15.70;99.90;;;;;;5031731;28;20053;-88
2023/03/15 08:45:37;;;;;;;1999.90;999.90;;;15.90;99.90;;;;;;5052146;28;20053;-82
2023/03/15 08:48:03;;;;;;;1999.90;999.90;;;16.20;99.90;;;;;;5043175;28;20053;-82
2023/03/15 08:50:30;;;;;;;1999.90;999.90;;;16.60;99.90;;;;;;5035191;28;20098;-82
2023/03/15 08:52:56;;;;;;;1999.90;999.90;;;17.10;99.90;;;;;;5039862;28;20049;-83
2023/03/15 08:55:22;;;;;;;1999.90;999.90;;;16.60;99.90;;;;;;5037406;28;20041;-83
2023/03/15 08:57:48;;;;;;;1999.90;999.90;;;16.20;99.90;;;;;;5039626;28;20098;-82
2023/03/15 09:00:19;;;;;;;1999.90;668.88;;;17.10;99.90;;;;;;5039773;28;20037;-87
2023/03/15 09:02:50;;;;;;;1999.90;763.92;;;17.00;99.90;;;;;;5033846;28;20505;-86
2023/03/15 09:05:17;;;;;;;1999.90;999.90;;;17.50;99.90;;;;;;5042497;28;20048;-82
2023/03/15 09:07:44;;;;;;;1999.90;999.90;;;17.60;99.90;;;;;;5038043;28;20052;-82
2023/03/15 09:10:14;;;;;;;1999.90;999.90;;;17.50;99.90;;;;;;5036321;28;20413;-82
2023/03/15 09:12:45;;;;;;;1999.90;999.90;;;17.90;99.90;;;;;;5038373;28;20068;-82
2023/03/15 09:15:12;;;;;;;1999.90;999.90;;;18.30;99.90;;;;;;5036843;28;20107;-82
2023/03/15 09:17:39;;;;;;;1999.90;999.90;;;18.50;99.90;;;;;;5036722;28;20104;-83
2023/03/15 09:20:13;;;;;;;1999.90;999.90;;;18.10;99.90;;;;;;5033097;28;21545;-83
2023/03/15 09:22:42;;;;;;;1999.90;999.90;;;18.70;99.90;;;;;;5040134;28;20351;-82
2023/03/15 09:25:08;;;;;;;1999.90;999.90;;;19.20;99.90;;;;;;5037035;28;20493;-82
2023/03/15 09:27:35;;;;;;;1999.90;999.90;;;19.70;99.90;;;;;;5034642;28;20049;-83
2023/03/15 09:30:01;;;;;;;1999.90;999.90;;;20.50;99.90;;;;;;5030045;28;20436;-83
2023/03/15 09:32:27;;;;;;;1999.90;999.90;;;20.70;99.80;;;;;;5050083;28;20131;-83
2023/03/15 09:34:53;;;;;;;1999.90;999.90;;;18.70;98.70;;;;;;5078480;28;20136;-82
2023/03/15 09:37:20;;;;;;;1999.90;999.90;;;20.60;96.20;;;;;;5061163;28;20122;-83
2023/03/15 09:39:46;;;;;;;1999.90;999.90;;;20.80;94.60;;;;;;5056878;28;20413;-83
2023/03/15 09:42:23;;;;;;;1999.90;999.90;;;20.30;73.70;;;;;;5075878;28;20040;-83
2023/03/15 09:45:21;;;;;;;1999.90;999.90;;;20.50;71.60;;;;;;5058913;28;20072;-84
2023/03/15 09:48:07;;;;;;;1999.90;999.90;;;20.70;63.70;;;;;;5077215;28;20504;-83
2023/03/15 09:50:41;;;;;;;1999.90;999.90;;;20.80;72.40;;;;;;5075049;28;20059;-84
2023/03/15 09:53:34;;;;;;;1999.90;999.90;;;20.80;61.30;;;;;;5061032;28;20064;-82
2023/03/15 09:56:00;;;;;;;1999.90;999.90;;;20.90;67.40;;;;;;5064275;28;20123;-84
2023/03/15 09:58:33;;;;;;;1999.90;881.00;;;20.70;48.50;;;;;;5055428;28;20103;-84
2023/03/15 10:01:04;;;;;;;1712.15;792.72;;;20.10;61.40;;;;;;5079834;28;20045;-85
2023/03/15 10:03:49;;;;;;;1999.90;999.90;;;19.90;63.10;;;;;;5060364;28;20048;-85
2023/03/15 10:06:29;;;;;;;1999.90;999.90;;;20.10;57.60;;;;;;5077328;28;20048;-85
2023/03/15 10:09:00;;;;;;;1999.90;764.35;;;20.10;44.90;;;;;;5075180;28;20076;-83
2023/03/15 10:11:52;;;;;;;1999.90;828.75;;;19.60;45.00;;;;;;5082399;28;20491;-86
2023/03/15 10:14:33;;;;;;;1999.90;999.90;;;18.50;51.00;;;;;;5076233;28;20054;-83
2023/03/15 10:17:09;;;;;;;1999.90;999.90;;;17.10;48.00;;;;;;5061651;28;20544;-85
2023/03/15 10:20:11;;;;;;;1999.90;999.90;;;16.10;73.80;;;;;;5065203;28;20108;-86
2023/03/15 10:22:44;;;;;;;1999.90;999.90;;;15.60;78.40;;;;;;5060692;28;20043;-85
2023/03/15 10:25:13;;;;;;;1999.90;999.90;;;15.50;75.70;;;;;;5078140;28;20046;-86
2023/03/15 10:27:48;;;;;;;1999.90;999.90;;;15.00;76.50;;;;;;5081817;28;20045;-85
2023/03/15 10:30:23;;;;;;;1999.90;999.90;;;14.50;80.10;;;;;;5057259;28;20080;-86
2023/03/15 10:32:53;;;;;;;1999.90;999.90;;;13.90;84.90;;;;;;5051459;28;20052;-85
2023/03/15 10:35:20;;;;;;;1999.90;999.90;;;13.60;84.90;;;;;;5038375;28;20136;-84
2023/03/15 10:37:48;;;;;;;1999.90;999.90;;;12.90;88.30;;;;;;5036527;28;20508;-87
2023/03/15 10:40:17;;;;;;;;;;;12.90;94.50;;;;;;5044209;28;20037;-90
2023/03/15 10:42:45;;;;;;;1999.90;999.90;;;15.20;95.70;;;;;;5041760;28;20019;-87
2023/03/15 10:45:21;;;;;;;1999.90;999.90;;;13.60;94.90;;;;;;5044481;28;20044;-86
2023/03/15 10:47:48;;;;;;;1999.90;999.90;;;14.50;91.50;;;;;;5058324;28;20076;-86
2023/03/15 10:50:29;;;;;;;1999.90;999.90;;;15.60;86.30;;;;;;5040749;28;20033;-86
2023/03/15 10:52:57;;;;;;;1999.90;999.90;;;17.20;58.70;;;;;;5036697;28;20037;-86
2023/03/15 10:55:34;;;;;;;;;;;18.20;61.20;;;;;;5041545;28;20107;-87
2023/03/15 10:58:19;;;;;;;1999.90;999.90;;;18.80;41.90;;;;;;5058914;28;19924;-89
2023/03/15 11:01:06;;;;;;;1999.90;999.90;;;18.90;29.60;;;;;;5054501;28;20074;-88
2023/03/15 11:03:33;;;;;;;1999.90;999.90;;;19.20;28.20;;;;;;5034908;28;20452;-90
2023/03/15 11:05:59;;;;;;;1999.90;999.90;;;19.00;23.30;;;;;;5019282;28;20054;-85
2023/03/15 11:08:37;;;;;;;1999.90;999.90;;;19.60;29.40;;;;;;5052625;28;20091;-88
2023/03/15 11:11:04;;;;;;;1999.90;999.90;;;19.30;8.90;;;;;;5051559;28;20042;-89
2023/03/15 11:13:35;;;;;;;1999.90;999.90;;;19.10;9.90;;;;;;5025948;28;20042;-87
2023/03/15 11:16:08;;;;;;;1999.90;999.90;;;18.40;14.30;;;;;;5027083;28;20112;-85
2023/03/15 11:18:53;;;;;;;1999.90;999.90;;;17.50;10.50;;;;;;5041445;28;20041;-85
2023/03/15 11:21:22;;;;;;;709.22;196.88;;;16.70;24.40;;;;;;5034854;28;20128;-87
2023/03/15 11:23:50;;;;;;;1999.90;999.90;;;16.20;24.40;;;;;;5038943;28;20036;-85
2023/03/15 11:26:24;;;;;;;1999.90;999.90;;;16.40;26.80;;;;;;5040980;28;20041;-85
2023/03/15 11:28:55;;;;;;;1999.90;770.20;;;16.50;23.40;;;;;;5025483;28;20056;-88
2023/03/15 11:31:25;;;;;;;1999.90;999.90;;;17.40;15.20;;;;;;5038949;28;20049;-84
2023/03/15 11:34:05;;;;;;;1999.90;999.90;;;16.90;20.80;;;;;;5044807;28;20061;-87
2023/03/15 11:36:35;;;;;;;1999.90;999.90;;;17.50;15.60;;;;;;5042175;28;20068;-90
2023/03/15 11:39:03;;;;;;;1999.90;999.90;;;18.10;4.70;;;;;;5035578;28;20045;-89
2023/03/15 11:41:33;;;;;;;1999.90;999.90;;;19.10;11.60;;;;;;5035893;28;20052;-85
2023/03/15 11:44:15;;;;;;;1999.90;999.90;;;20.00;8.60;;;;;;5044250;28;20394;-85
2023/03/15 11:46:51;;;;;;;1999.90;999.90;;;20.80;1.00;;;;;;5045194;28;20041;-85
2023/03/15 11:49:35;;;;;;;1999.90;999.90;;;20.90;1.00;;;;;;5054852;28;20453;-86
2023/03/15 11:52:01;;;;;;;1999.90;999.90;;;21.00;1.00;;;;;;5065322;28;20128;-86
2023/03/15 11:54:31;;;;;;;1999.90;999.90;;;19.80;1.00;;;;;;5038199;28;20046;-86
2023/03/15 11:57:02;;;;;;;1999.90;999.90;;;18.30;1.00;;;;;;5037409;28;20486;-87
2023/03/15 11:59:31;;;;;;;1999.90;974.53;;;17.90;1.00;;;;;;5034332;28;20048;-86
2023/03/15 12:02:09;;;;;;;1999.90;999.90;;;16.90;1.00;;;;;;5032928;28;20041;-87
2023/03/15 12:04:35;;;;;;;1999.90;999.90;;;17.20;1.00;;;;;;5043904;28;20037;-92
2023/03/15 12:07:23;;;;;;;1999.90;999.90;;;16.20;1.00;;;;;;5043333;28;20045;-86
2023/03/15 12:09:50;;;;;;;1999.90;968.10;;;16.70;1.00;;;;;;5022633;28;20045;-88
2023/03/15 12:12:25;;;;;;;1999.90;999.90;;;18.10;5.20;;;;;;5032447;28;20033;-88
2023/03/15 12:15:01;;;;;;;1999.90;999.90;;;17.30;1.00;;;;;;5032781;28;20056;-86
2023/03/15 12:17:26;;;;;;;1999.90;804.85;;;17.00;1.00;;;;;;5033704;28;20084;-85
2023/03/15 12:20:18;;;;;;;1999.90;999.90;;;16.10;1.00;;;;;;5035086;28;20057;-91
2023/03/15 12:23:03;;;;;;;1999.90;999.90;;;15.30;1.00;;;;;;5050285;28;20134;-87